Time;durP1;ratioP1;P1;durP2;ratioP2;P2;SDS_P1;SDS_P2;PMS_P1;PMS_P2;Temp;Humidity;BMP_temperature;BMP_pressure;BME280_temperature;BME280_humidity;BME280_pressure;Samples;Min_cycle;Max_cycle;Signal;HPM_P1;HPM_P2
2022/01/05 00:00:23;;;;;;;32.50;14.82;;;;;;;-6.14;72.53;98092.91;4862842;29;20155;-68
2022/01/05 00:02:48;;;;;;;38.78;19.38;;;;;;;-6.34;73.66;98098.69;4862789;29;20042;-69
2022/01/05 00:05:12;;;;;;;25.23;11.10;;;;;;;-6.15;73.23;98101.59;4863352;29;20108;-69
2022/01/05 00:07:37;;;;;;;29.23;14.25;;;;;;;-6.27;73.43;98106.22;4848373;29;20080;-72
2022/01/05 00:10:03;;;;;;;40.25;18.35;;;;;;;-6.33;73.35;98100.38;4862764;29;20083;-68
2022/01/05 00:12:28;;;;;;;32.63;15.40;;;;;;;-6.35;73.93;98103.03;4862738;29;20080;-65
2022/01/05 00:14:52;;;;;;;12.82;8.05;;;;;;;-6.11;73.77;98108.41;4861452;29;20084;-71
2022/01/05 00:17:18;;;;;;;35.05;17.25;;;;;;;-6.06;73.57;98102.16;4860936;29;20152;-71
2022/01/05 00:19:44;;;;;;;28.35;15.75;;;;;;;-6.02;72.80;98097.75;4845615;29;20051;-71
2022/01/05 00:22:11;;;;;;;15.23;7.95;;;;;;;-5.88;72.87;98091.22;4861775;29;20051;-64
2022/01/05 00:24:37;;;;;;;30.48;14.68;;;;;;;-5.96;72.84;98092.34;4862409;29;20088;-71
2022/01/05 00:27:03;;;;;;;29.48;13.77;;;;;;;-6.16;73.07;98085.16;4846267;29;20530;-69
2022/01/05 00:29:28;;;;;;;22.25;10.85;;;;;;;-6.08;73.39;98087.53;4861050;29;20507;-69
2022/01/05 00:31:53;;;;;;;15.50;8.63;;;;;;;-5.89;73.27;98091.28;4845691;29;20455;-66
2022/01/05 00:34:18;;;;;;;22.58;10.77;;;;;;;-5.86;72.69;98078.16;4861514;29;20047;-74
2022/01/05 00:36:42;;;;;;;26.92;12.70;;;;;;;-5.92;73.05;98076.66;4862880;29;20063;-74
2022/01/05 00:39:07;;;;;;;28.65;13.48;;;;;;;-6.07;73.84;98073.66;4860151;29;20571;-69
2022/01/05 00:41:32;;;;;;;17.08;8.55;;;;;;;-6.03;73.51;98070.94;4860843;29;20795;-72
2022/01/05 00:43:57;;;;;;;33.60;16.73;;;;;;;-6.16;74.11;98084.31;4830337;29;20040;-73
2022/01/05 00:46:22;;;;;;;31.20;14.85;;;;;;;-6.22;74.42;98079.31;4861960;29;20101;-68
2022/01/05 00:48:47;;;;;;;36.40;18.30;;;;;;;-6.19;74.19;98074.03;4861935;29;20056;-67
2022/01/05 00:51:14;;;;;;;31.10;16.38;;;;;;;-6.08;74.07;98075.41;4861148;29;20049;-73
2022/01/05 00:53:39;;;;;;;30.67;14.05;;;;;;;-5.98;74.48;98083.78;4860921;29;20079;-72
2022/01/05 00:56:04;;;;;;;30.48;15.15;;;;;;;-6.06;74.24;98070.19;4860475;29;20075;-70
2022/01/05 00:58:29;;;;;;;33.60;15.50;;;;;;;-6.04;74.68;98066.66;4860358;29;20464;-68
2022/01/05 01:00:54;;;;;;;30.90;15.95;;;;;;;-6.15;74.96;98062.69;4861713;29;20072;-67
2022/01/05 01:03:19;;;;;;;22.52;9.20;;;;;;;-5.81;74.17;98059.88;4860657;29;20083;-70
2022/01/05 01:05:43;;;;;;;24.13;11.63;;;;;;;-5.68;73.68;98064.63;4844991;29;20040;-70
2022/01/05 01:08:09;;;;;;;28.75;10.85;;;;;;;-5.62;73.19;98056.63;4861779;29;20076;-68
2022/01/05 01:10:34;;;;;;;28.75;14.10;;;;;;;-5.69;72.95;98049.94;4860514;29;20040;-69
2022/01/05 01:12:59;;;;;;;36.45;18.38;;;;;;;-6.10;74.59;98048.69;4860031;29;20168;-70
2022/01/05 01:15:24;;;;;;;34.22;16.23;;;;;;;-6.04;75.23;98052.81;4860273;29;20055;-70
2022/01/05 01:17:48;;;;;;;30.00;13.45;;;;;;;-5.77;74.78;98048.50;4861636;29;20443;-71
2022/01/05 01:20:13;;;;;;;21.63;11.57;;;;;;;-5.70;74.07;98043.06;4859849;29;20048;-70
2022/01/05 01:22:38;;;;;;;30.20;11.77;;;;;;;-5.62;73.68;98038.47;4860996;29;20052;-66
2022/01/05 01:25:06;;;;;;;25.75;12.75;;;;;;;-5.75;74.26;98042.34;4861230;29;20052;-70
2022/01/05 01:27:32;;;;;;;24.08;12.05;;;;;;;-5.75;74.65;98036.31;4861972;29;20071;-65
2022/01/05 01:29:57;;;;;;;21.67;9.80;;;;;;;-5.69;74.40;98029.19;4860982;29;20361;-68
2022/01/05 01:32:22;;;;;;;30.15;13.95;;;;;;;-5.65;74.13;98025.59;4859749;29;20059;-67
2022/01/05 01:34:47;;;;;;;23.30;9.38;;;;;;;-5.59;73.90;98027.13;4860896;29;20535;-64
2022/01/05 01:37:11;;;;;;;36.63;17.13;;;;;;;-5.76;75.24;98030.28;4861217;29;20056;-65
2022/01/05 01:39:36;;;;;;;28.92;12.00;;;;;;;-5.56;74.38;98014.06;4878840;29;20060;-65
2022/01/05 01:42:01;;;;;;;22.02;10.70;;;;;;;-5.48;74.26;98027.63;4847308;29;20562;-65
2022/01/05 01:44:26;;;;;;;31.27;14.70;;;;;;;-5.56;74.64;98032.22;4862651;29;20102;-70
2022/01/05 01:46:50;;;;;;;23.23;12.35;;;;;;;-5.53;74.71;98019.97;4868600;29;20090;-65
2022/01/05 01:49:18;;;;;;;27.02;11.93;;;;;;;-5.49;75.05;98028.53;4887361;29;20070;-66
2022/01/05 01:51:43;;;;;;;23.30;11.80;;;;;;;-5.42;74.99;98026.59;4884879;29;20086;-66
2022/01/05 01:54:08;;;;;;;22.23;9.55;;;;;;;-5.26;74.46;98012.16;4902132;29;20035;-68
2022/01/05 01:56:34;;;;;;;22.05;10.40;;;;;;;-5.14;73.80;98003.94;4885321;29;20143;-65
2022/01/05 01:59:00;;;;;;;17.95;7.50;;;;;;;-5.16;73.81;98011.78;4902171;29;20179;-67
2022/01/05 02:01:25;;;;;;;24.73;12.35;;;;;;;-5.15;73.66;98000.50;4885255;29;20512;-66
2022/01/05 02:03:50;;;;;;;23.65;11.65;;;;;;;-5.21;73.70;97992.09;4902335;29;20047;-65
2022/01/05 02:06:14;;;;;;;13.18;7.45;;;;;;;-4.96;73.32;97990.28;4885168;29;20073;-66
2022/01/05 02:08:40;;;;;;;21.95;11.27;;;;;;;-4.99;72.87;97990.44;4885168;29;20043;-67
2022/01/05 02:11:07;;;;;;;26.15;11.27;;;;;;;-5.14;72.99;97978.81;4901937;29;20063;-66
2022/01/05 02:13:32;;;;;;;25.92;11.68;;;;;;;-5.18;73.28;97978.97;4884770;29;20047;-66
2022/01/05 02:15:56;;;;;;;24.15;12.20;;;;;;;-5.10;73.48;97979.56;4902104;29;20063;-68
2022/01/05 02:20:57;;;;;;;25.05;13.30;;;;;;;-5.17;73.68;97975.47;4901947;29;20047;-66
2022/01/05 02:23:21;;;;;;;22.73;9.52;;;;;;;-5.07;74.02;97966.44;4884928;29;20039;-67
2022/01/05 02:25:46;;;;;;;19.55;9.65;;;;;;;-5.09;74.11;97967.44;4869524;29;20062;-69
2022/01/05 02:28:11;;;;;;;22.30;10.85;;;;;;;-5.08;73.89;97963.94;4884779;29;20039;-69
2022/01/05 02:30:38;;;;;;;17.10;9.00;;;;;;;-5.06;73.75;97967.28;4901791;29;20058;-66
2022/01/05 02:33:02;;;;;;;23.42;11.07;;;;;;;-5.00;73.84;97957.56;4868746;29;20035;-71
2022/01/05 02:35:27;;;;;;;28.02;11.30;;;;;;;-4.96;73.72;97955.66;4884855;29;20052;-69
2022/01/05 02:37:53;;;;;;;18.83;10.88;;;;;;;-5.05;73.50;97943.88;4865923;29;20196;-64
2022/01/05 02:40:21;;;;;;;20.33;10.35;;;;;;;-5.05;74.02;97945.63;4882180;29;20142;-65
2022/01/05 02:42:46;;;;;;;17.73;8.75;;;;;;;-4.95;74.21;97950.41;4882994;29;20511;-72
2022/01/05 02:45:14;;;;;;;26.05;12.48;;;;;;;-4.96;73.76;97951.31;4882681;29;20048;-74
2022/01/05 02:47:39;;;;;;;21.45;9.68;;;;;;;-4.96;74.23;97953.06;4887946;29;20056;-75
2022/01/05 02:50:06;;;;;;;20.05;9.95;;;;;;;-5.00;73.74;97946.31;4872797;29;20135;-65
2022/01/05 02:52:31;;;;;;;21.20;9.57;;;;;;;-4.99;74.48;97948.00;4888353;29;20427;-64
2022/01/05 02:54:56;;;;;;;18.10;10.27;;;;;;;-4.90;74.43;97937.28;4889586;29;20084;-64
2022/01/05 02:57:21;;;;;;;22.90;10.90;;;;;;;-4.92;74.22;97934.72;4893227;29;20043;-64
2022/01/05 02:59:45;;;;;;;24.35;11.65;;;;;;;-4.80;74.38;97934.28;4889526;29;20051;-69
2022/01/05 03:02:10;;;;;;;21.00;11.20;;;;;;;-4.85;74.41;97932.72;4883234;29;20075;-64
2022/01/05 03:04:35;;;;;;;16.80;7.43;;;;;;;-4.80;74.20;97939.47;4883767;29;20079;-64
2022/01/05 03:07:00;;;;;;;17.33;7.70;;;;;;;-4.75;74.00;97931.50;4880775;29;20044;-66
2022/01/05 03:09:24;;;;;;;24.45;10.75;;;;;;;-4.76;74.40;97929.81;4864484;29;20049;-68
2022/01/05 03:11:49;;;;;;;27.23;9.57;;;;;;;-4.80;74.27;97928.22;4864240;29;20071;-66
2022/01/05 03:14:14;;;;;;;21.20;10.77;;;;;;;-4.72;74.58;97920.13;4863960;29;20415;-66
2022/01/05 03:16:39;;;;;;;23.88;10.05;;;;;;;-4.74;74.63;97916.75;4865166;29;20113;-67
2022/01/05 03:19:03;;;;;;;14.18;7.32;;;;;;;-4.69;74.15;97923.47;4864147;29;20407;-65
2022/01/05 03:21:28;;;;;;;21.30;9.60;;;;;;;-4.66;73.97;97925.13;4865901;29;20781;-70
2022/01/05 03:23:53;;;;;;;21.25;10.30;;;;;;;-4.62;74.10;97922.31;4864718;29;20076;-63
2022/01/05 03:26:18;;;;;;;26.63;11.75;;;;;;;-4.59;73.59;97921.34;4863952;29;20053;-73
2022/01/05 03:28:42;;;;;;;26.08;11.57;;;;;;;-4.70;73.67;97913.13;4870458;29;20049;-69
2022/01/05 03:31:07;;;;;;;18.02;9.80;;;;;;;-4.77;73.92;97922.91;4841039;29;20115;-72
2022/01/05 03:33:32;;;;;;;24.02;11.07;;;;;;;-4.72;73.95;97920.13;4848441;29;20068;-73
2022/01/05 03:35:57;;;;;;;20.70;11.45;;;;;;;-4.70;73.82;97911.38;4847621;29;20200;-74
2022/01/05 03:38:24;;;;;;;26.88;12.82;;;;;;;-4.73;73.96;97908.88;4861830;29;20091;-69
2022/01/05 03:40:49;;;;;;;14.85;6.28;;;;;;;-4.60;74.30;97914.47;4863093;29;20059;-62
2022/01/05 03:43:14;;;;;;;20.60;10.55;;;;;;;-4.70;73.99;97913.97;4862986;29;20048;-61
2022/01/05 03:45:40;;;;;;;18.75;8.20;;;;;;;-4.69;74.15;97901.81;4866666;29;20049;-64
2022/01/05 03:48:07;;;;;;;18.27;10.02;;;;;;;-4.76;74.13;97902.06;4863224;29;20884;-63
2022/01/05 03:50:33;;;;;;;23.60;11.10;;;;;;;-4.75;74.68;97910.72;4861807;29;20522;-64
2022/01/05 03:52:57;;;;;;;20.05;9.55;;;;;;;-4.69;74.38;97907.03;4862768;29;20052;-65
2022/01/05 03:55:22;;;;;;;22.50;11.63;;;;;;;-4.70;74.38;97913.13;4862467;29;20052;-67
2022/01/05 03:57:47;;;;;;;19.83;10.07;;;;;;;-4.69;74.50;97905.28;4862549;29;20044;-66
2022/01/05 04:00:12;;;;;;;22.38;10.43;;;;;;;-4.70;74.28;97902.72;4862573;29;20460;-64
2022/01/05 04:02:42;;;;;;;26.42;11.57;;;;;;;-4.73;74.59;97897.63;4862468;29;20052;-65
2022/01/05 04:05:08;;;;;;;20.52;9.35;;;;;;;-4.73;74.83;97895.88;4861088;29;20044;-65
2022/01/05 04:07:33;;;;;;;21.23;10.32;;;;;;;-4.70;74.33;97897.53;4864928;29;20045;-64
2022/01/05 04:09:58;;;;;;;23.90;10.80;;;;;;;-4.71;74.78;97888.88;4872823;29;20096;-65
2022/01/05 04:12:22;;;;;;;22.08;9.82;;;;;;;-4.61;74.34;97886.75;4871722;29;20048;-65
2022/01/05 04:14:47;;;;;;;25.42;11.13;;;;;;;-4.55;73.93;97886.53;4856184;29;20044;-66
2022/01/05 04:17:12;;;;;;;28.30;11.45;;;;;;;-4.63;73.99;97876.44;4872926;29;20056;-67
2022/01/05 04:19:37;;;;;;;24.95;9.88;;;;;;;-4.55;73.94;97886.53;4869055;29;20036;-66
2022/01/05 04:22:02;;;;;;;19.75;10.75;;;;;;;-4.57;73.59;97884.00;4870485;29;20072;-66
2022/01/05 04:24:27;;;;;;;12.70;8.07;;;;;;;-4.53;73.42;97882.97;4871646;29;20075;-66
2022/01/05 04:26:57;;;;;;;24.15;10.90;;;;;;;-4.68;73.25;97875.78;4872759;29;20076;-65
2022/01/05 04:29:21;;;;;;;27.58;9.88;;;;;;;-4.67;73.64;97884.41;4869305;29;20048;-67
2022/01/05 04:31:46;;;;;;;30.20;13.32;;;;;;;-4.70;73.63;97871.53;4872598;29;20056;-66
2022/01/05 04:34:11;;;;;;;30.50;12.90;;;;;;;-4.86;73.55;97877.34;4872590;29;20119;-65
2022/01/05 04:36:41;;;;;;;24.55;11.32;;;;;;;-4.96;74.20;97875.97;4870484;29;20507;-65
2022/01/05 04:39:06;;;;;;;21.65;9.85;;;;;;;-4.94;74.50;97873.31;4884797;29;20082;-66
2022/01/05 11:17:03;;;;;;;15.75;8.00;;;;;;;-5.35;75.75;97147.81;5232912;24;20075;-73
2022/01/05 11:19:35;;;;;;;7.80;5.43;;;;;;;-5.41;75.90;97151.53;4884729;29;20082;-72
2022/01/05 11:22:16;;;;;;;17.98;8.38;;;;;;;-5.53;75.73;97150.34;4900731;29;20044;-73
2022/01/05 11:24:52;;;;;;;8.43;4.30;;;;;;;-5.67;76.59;97144.16;4900845;29;20439;-72
2022/01/05 11:27:27;;;;;;;10.55;6.93;;;;;;;-5.63;76.93;97132.69;4883787;29;20043;-71
2022/01/05 11:29:53;;;;;;;15.82;7.43;;;;;;;-5.64;76.86;97137.03;4900708;29;20142;-72
2022/01/05 11:32:22;;;;;;;10.48;5.95;;;;;;;-5.69;77.01;97128.66;4900824;29;20052;-71
2022/01/05 11:34:49;;;;;;;14.07;7.75;;;;;;;-5.58;76.92;97139.38;4883656;29;20458;-70
2022/01/05 11:37:14;;;;;;;18.98;8.85;;;;;;;-5.74;77.38;97147.94;4900422;29;20134;-70
2022/01/05 11:39:53;;;;;;;11.70;5.78;;;;;;;-5.58;77.40;97126.41;4883758;29;20050;-72
2022/01/05 11:42:28;;;;;;;12.98;6.68;;;;;;;-5.57;77.21;97124.66;4883688;29;20118;-73
2022/01/05 11:44:57;;;;;;;16.80;7.90;;;;;;;-5.49;77.17;97125.94;4883499;29;20047;-72
2022/01/05 11:47:26;;;;;;;13.25;7.05;;;;;;;-5.58;76.90;97131.59;4900477;29;20059;-71
2022/01/05 11:49:53;;;;;;;9.60;4.95;;;;;;;-5.55;77.04;97122.81;4883836;29;20099;-72
2022/01/05 11:52:18;;;;;;;12.95;6.75;;;;;;;-5.55;77.12;97125.41;4883630;29;20047;-72
2022/01/05 11:55:02;;;;;;;11.75;6.55;;;;;;;-5.54;77.39;97116.72;4900331;29;20047;-70
2022/01/05 11:57:28;;;;;;;23.52;12.07;;;;;;;-5.58;76.98;97123.81;4900624;29;20052;-72
2022/01/05 12:00:16;;;;;;;20.95;10.40;;;;;;;-5.64;77.16;97116.28;4883376;29;20060;-73
2022/01/05 12:02:41;;;;;;;13.30;6.82;;;;;;;-5.68;77.76;97119.97;4900499;29;20127;-71
2022/01/05 12:05:06;;;;;;;21.42;9.55;;;;;;;-5.68;77.46;97106.16;4899997;29;20051;-71
2022/01/05 12:07:34;;;;;;;18.05;9.13;;;;;;;-5.69;77.80;97114.84;4900211;29;20066;-72
2022/01/05 12:10:00;;;;;;;13.38;5.30;;;;;;;-5.47;77.80;97117.25;4900655;29;20051;-71
2022/01/05 12:12:29;;;;;;;13.77;6.60;;;;;;;-5.55;77.26;97108.09;4900198;29;20134;-71
2022/01/05 12:14:54;;;;;;;15.35;7.68;;;;;;;-5.47;77.15;97093.88;4900220;29;20074;-73
2022/01/05 12:17:20;;;;;;;11.63;7.18;;;;;;;-5.44;77.21;97089.41;4879602;29;20060;-70
2022/01/05 12:19:48;;;;;;;6.90;4.20;;;;;;;-5.50;77.10;97094.88;4881061;29;20048;-71
2022/01/05 12:22:28;;;;;;;21.63;8.88;;;;;;;-5.46;76.44;97092.97;4881188;29;20048;-71
2022/01/05 12:24:53;;;;;;;12.68;7.97;;;;;;;-5.39;76.84;97097.78;4881591;29;20462;-74
2022/01/05 12:27:21;;;;;;;25.50;11.77;;;;;;;-5.55;76.72;97092.50;4881674;29;20443;-66
2022/01/05 12:29:46;;;;;;;24.10;10.95;;;;;;;-5.44;76.87;97098.94;4880748;29;20058;-67
2022/01/05 12:32:31;;;;;;;10.15;6.15;;;;;;;-5.30;76.25;97075.72;4881816;29;20538;-68
2022/01/05 12:34:58;;;;;;;24.95;11.48;;;;;;;-5.54;76.49;97080.38;4860818;29;20188;-67
2022/01/05 12:37:43;;;;;;;21.77;10.88;;;;;;;-5.42;76.43;97077.19;4868941;29;20032;-67
2022/01/05 12:40:36;;;;;;;21.67;9.57;;;;;;;-5.42;76.29;97084.97;4872968;29;20067;-64
2022/01/05 12:43:10;;;;;;;21.73;9.55;;;;;;;-5.43;76.63;97078.09;4866268;29;20052;-66
2022/01/05 12:45:59;;;;;;;14.35;7.40;;;;;;;-5.38;76.28;97077.84;4872589;29;20040;-75
2022/01/05 12:48:33;;;;;;;18.05;10.30;;;;;;;-5.27;76.16;97067.78;4873258;29;20048;-63
2022/01/05 12:54:03;;;;;;;16.02;7.95;;;;;;;-5.19;75.88;97057.88;4873044;29;20055;-67
2022/01/05 12:56:42;;;;;;;13.30;7.15;;;;;;;-5.23;75.62;97071.91;4871648;29;20050;-65
2022/01/05 12:59:22;;;;;;;17.23;9.38;;;;;;;-5.29;75.76;97070.44;4871144;29;20043;-69
2022/01/05 13:01:54;;;;;;;17.48;5.10;;;;;;;-5.21;75.33;97055.34;4869762;29;20039;-66
2022/01/05 13:04:24;;;;;;;11.73;6.25;;;;;;;-5.27;75.30;97060.00;4871545;29;20123;-69
2022/01/05 13:06:49;;;;;;;22.17;11.85;;;;;;;-5.41;75.72;97047.69;4872215;29;20426;-66
2022/01/05 13:09:26;;;;;;;18.48;9.32;;;;;;;-5.39;75.89;97053.66;4868890;29;20036;-65
2022/01/05 13:11:51;;;;;;;17.83;10.25;;;;;;;-5.34;75.88;97053.44;4868565;29;20044;-66
2022/01/05 13:14:28;;;;;;;27.35;11.38;;;;;;;-5.33;76.01;97048.19;4866697;29;20112;-63
2022/01/05 13:17:21;;;;;;;19.27;10.43;;;;;;;-5.32;76.34;97043.81;4872129;29;20059;-65
2022/01/05 13:19:53;;;;;;;11.75;6.65;;;;;;;-5.21;76.62;97044.13;4875215;29;20714;-65
2022/01/05 13:22:25;;;;;;;21.58;10.88;;;;;;;-5.33;76.19;97039.53;4880245;29;20518;-66
2022/01/05 13:25:06;;;;;;;12.32;6.30;;;;;;;-5.18;76.34;97025.78;4880073;29;20083;-66
2022/01/05 13:27:48;;;;;;;11.65;6.53;;;;;;;-5.23;75.72;97036.41;4880177;29;20047;-65
2022/01/05 13:30:24;;;;;;;10.52;7.18;;;;;;;-5.06;75.92;97037.28;4882190;29;20039;-67
2022/01/05 13:32:51;;;;;;;18.65;9.70;;;;;;;-5.27;75.99;97031.44;4887652;29;20043;-68
2022/01/05 13:35:23;;;;;;;9.30;6.15;;;;;;;-5.06;75.82;97019.13;4888532;29;20462;-71
2022/01/05 13:37:51;;;;;;;17.52;9.35;;;;;;;-5.11;75.30;97019.38;4873083;29;20043;-73
2022/01/05 13:40:22;;;;;;;19.05;9.25;;;;;;;-5.15;75.83;97018.69;4889426;29;20072;-70
2022/01/05 13:42:49;;;;;;;18.15;8.38;;;;;;;-5.29;75.74;97020.28;4895896;29;20147;-72
2022/01/05 13:45:19;;;;;;;20.98;11.25;;;;;;;-5.25;75.79;97014.03;4905546;29;20046;-69
2022/01/05 13:47:44;;;;;;;19.50;10.23;;;;;;;-5.24;75.72;97013.94;4906413;29;20605;-72
2022/01/05 13:50:15;;;;;;;15.90;6.90;;;;;;;-5.10;75.70;97002.88;4877133;29;20474;-74
2022/01/05 13:52:41;;;;;;;17.92;9.68;;;;;;;-5.22;75.69;97014.72;4875765;29;20402;-71
2022/01/05 13:55:07;;;;;;;14.90;7.28;;;;;;;-5.28;76.00;97006.38;4888592;29;20121;-70
2022/01/05 13:57:35;;;;;;;16.08;8.40;;;;;;;-5.22;76.00;97008.69;4887087;29;20043;-69
2022/01/05 14:00:09;;;;;;;13.43;7.28;;;;;;;-5.29;76.70;97010.72;4886948;29;20090;-68
2022/01/05 14:02:34;;;;;;;;;;;;;;;-5.18;76.15;97007.59;4888620;29;20151;-69
2022/01/05 14:05:00;;;;;;;;;;;;;;;-5.14;75.70;97003.94;4870646;29;20016;-62
2022/01/05 14:07:27;;;;;;;8.43;5.05;;;;;;;-5.08;75.37;97000.19;4889070;29;20356;-62
2022/01/05 14:10:26;;;;;;;17.20;8.50;;;;;;;-5.17;75.49;97006.69;4890774;29;20072;-63
2022/01/05 14:12:51;;;;;;;27.35;10.02;;;;;;;-5.27;75.86;97008.06;4799800;29;20061;-61
2022/01/05 14:15:18;;;;;;;19.63;9.90;;;;;;;-5.30;75.90;97005.63;4805844;29;20041;-59
2022/01/05 14:18:07;;;;;;;14.73;8.15;;;;;;;-5.22;76.57;96991.34;4820065;29;20148;-61
2022/01/05 14:20:35;;;;;;;16.90;9.52;;;;;;;-5.39;76.33;96993.94;4820822;29;20082;-60
2022/01/05 14:23:06;;;;;;;18.83;9.52;;;;;;;-5.39;76.84;96999.13;4797843;29;20057;-61
2022/01/05 14:25:33;;;;;;;9.70;5.13;;;;;;;-5.13;76.73;97000.41;4820539;29;20045;-61
2022/01/05 14:27:58;;;;;;;13.15;8.02;;;;;;;-5.02;76.06;97000.72;4821392;29;20089;-62
2022/01/05 14:30:31;;;;;;;17.10;9.32;;;;;;;-4.97;75.29;97003.09;4819233;29;20057;-60
2022/01/05 14:32:56;;;;;;;17.15;9.45;;;;;;;-5.12;75.58;97009.91;4821204;29;20069;-63
2022/01/05 14:35:20;;;;;;;14.93;7.75;;;;;;;-5.18;75.93;97020.56;4822194;29;20069;-68
2022/01/05 14:37:56;;;;;;;8.43;6.07;;;;;;;-5.00;75.77;97011.88;4782468;29;20045;-67
2022/01/05 14:40:24;;;;;;;11.68;6.65;;;;;;;-5.11;76.27;97019.38;4820496;29;20061;-70
2022/01/05 14:43:00;;;;;;;18.80;9.75;;;;;;;-5.07;76.07;97013.06;4818364;29;20794;-67
2022/01/05 14:45:27;;;;;;;17.02;9.52;;;;;;;-5.08;75.93;97027.00;4805604;29;20049;-66
2022/01/05 14:47:51;;;;;;;17.60;7.13;;;;;;;-5.06;76.09;97016.50;4820265;29;20193;-69
2022/01/05 14:50:17;;;;;;;15.55;7.45;;;;;;;-5.09;75.69;97027.94;4848657;29;20055;-65
2022/01/05 14:52:43;;;;;;;19.85;10.10;;;;;;;-5.09;75.96;97014.94;4853023;29;20088;-63
2022/01/05 14:55:11;;;;;;;16.73;7.88;;;;;;;-5.14;76.06;97015.16;4868015;29;20092;-63
2022/01/05 14:57:36;;;;;;;11.73;6.28;;;;;;;-4.95;76.05;96999.47;4868382;29;20502;-62
2022/01/05 15:00:02;;;;;;;16.48;8.43;;;;;;;-5.07;75.94;97005.28;4873952;29;20510;-67
2022/01/05 15:02:28;;;;;;;17.65;9.75;;;;;;;-5.07;75.55;97000.09;4870273;29;20151;-64
2022/01/05 15:04:53;;;;;;;19.42;9.55;;;;;;;-5.06;75.81;96998.34;4874140;29;20039;-67
2022/01/05 15:07:18;;;;;;;19.38;8.65;;;;;;;-5.10;75.89;96997.69;4857157;29;20036;-66
2022/01/05 15:09:43;;;;;;;21.05;10.35;;;;;;;-4.94;75.67;96993.34;4873364;29;20517;-66
2022/01/05 15:12:10;;;;;;;20.30;10.10;;;;;;;-5.03;75.91;97005.97;4877021;29;20096;-64
2022/01/05 15:14:35;;;;;;;19.20;7.93;;;;;;;-5.05;76.15;97005.22;4880805;29;20554;-62
2022/01/05 15:17:02;;;;;;;14.52;8.70;;;;;;;-4.94;76.12;97002.91;4893625;29;20525;-62
2022/01/05 15:19:27;;;;;;;15.93;7.60;;;;;;;-4.93;75.88;97004.59;4900763;29;20126;-64
2022/01/05 15:21:52;;;;;;;16.05;7.75;;;;;;;-4.81;75.78;97002.19;4900823;29;20151;-62
2022/01/05 15:24:16;;;;;;;17.48;6.80;;;;;;;-4.82;75.47;97008.28;4884887;29;20071;-64
2022/01/05 15:26:41;;;;;;;18.63;10.48;;;;;;;-4.90;75.34;97020.84;4900954;29;20107;-65
2022/01/05 15:29:06;;;;;;;18.25;9.55;;;;;;;-4.95;75.52;97009.84;4901031;29;20039;-66
2022/01/05 15:31:31;;;;;;;16.73;8.88;;;;;;;-4.97;75.59;96995.28;4900946;29;20047;-63
2022/01/05 15:33:56;;;;;;;19.20;9.70;;;;;;;-5.05;76.10;96998.25;4883415;29;20416;-64
2022/01/05 15:36:22;;;;;;;18.92;9.75;;;;;;;-5.04;76.37;97012.94;4883492;29;20048;-64
2022/01/05 15:38:47;;;;;;;15.98;9.32;;;;;;;-5.05;76.61;97013.00;4864935;29;20079;-67
2022/01/05 15:41:14;;;;;;;18.88;9.88;;;;;;;-4.92;76.49;97006.25;4864671;29;20090;-67
2022/01/05 15:43:39;;;;;;;17.40;9.25;;;;;;;-4.78;75.96;97012.44;4864730;29;20083;-71
2022/01/05 15:46:05;;;;;;;17.85;8.93;;;;;;;-4.75;76.13;97001.03;4882156;29;20079;-67
2022/01/05 15:48:33;;;;;;;16.88;10.35;;;;;;;-4.82;76.14;97010.06;4881840;29;20419;-68
2022/01/05 15:50:58;;;;;;;16.88;8.10;;;;;;;-4.73;75.96;97019.13;4865295;29;20051;-69
2022/01/05 15:53:24;;;;;;;19.67;10.57;;;;;;;-4.76;75.71;97014.94;4881672;29;20045;-67
2022/01/05 15:56:02;;;;;;;19.08;10.23;;;;;;;-4.87;75.92;97004.28;4881583;29;20143;-67
2022/01/05 16:03:51;;;;;;;17.20;9.82;;;;;;;-4.91;76.27;97026.97;4815051;29;20108;-66
2022/01/05 16:06:21;;;;;;;13.30;6.55;;;;;;;-4.86;76.91;97027.59;4832501;29;20048;-67
2022/01/05 16:08:47;;;;;;;13.95;7.88;;;;;;;-4.78;76.53;97024.59;4841877;29;20112;-64
2022/01/05 16:11:13;;;;;;;19.33;10.23;;;;;;;-4.67;76.03;97019.66;4827142;29;20040;-69
2022/01/05 16:13:38;;;;;;;22.15;9.75;;;;;;;-4.72;75.87;97015.59;4810382;29;20136;-65
2022/01/05 16:16:03;;;;;;;18.50;9.48;;;;;;;-4.74;76.18;97013.13;4822800;29;20161;-64
2022/01/05 16:18:28;;;;;;;20.42;9.25;;;;;;;-4.70;76.64;97018.97;4823560;29;20078;-62
2022/01/05 16:20:53;;;;;;;19.00;10.73;;;;;;;-4.73;76.72;97029.53;4823535;29;20088;-63
2022/01/05 16:23:21;;;;;;;13.40;5.93;;;;;;;-4.67;76.45;97032.66;4823692;29;20099;-64
2022/01/05 16:25:47;;;;;;;17.13;9.32;;;;;;;-4.74;76.23;97046.06;4807018;29;20053;-68
2022/01/05 16:28:11;;;;;;;18.42;10.68;;;;;;;-4.78;76.66;97053.16;4822713;29;20302;-64
2022/01/05 16:30:37;;;;;;;23.95;10.20;;;;;;;-4.78;76.84;97037.56;4822773;29;20152;-67
2022/01/05 16:33:02;;;;;;;11.65;7.45;;;;;;;-4.66;77.02;97025.69;4808664;29;20085;-68
2022/01/05 16:35:31;;;;;;;21.38;11.98;;;;;;;-4.64;76.37;97023.88;4823057;29;20304;-67
2022/01/05 16:37:55;;;;;;;17.00;9.13;;;;;;;-4.67;76.56;97027.47;4823203;29;20098;-66
2022/01/05 16:40:20;;;;;;;17.58;9.32;;;;;;;-4.62;76.77;97024.59;4854534;29;20057;-68
2022/01/05 16:42:45;;;;;;;19.05;10.07;;;;;;;-4.63;77.26;97023.78;4862686;29;20040;-66
2022/01/05 16:45:10;;;;;;;20.98;10.07;;;;;;;-4.62;76.98;97027.19;4860393;29;20500;-67
2022/01/05 16:47:35;;;;;;;17.85;9.27;;;;;;;-4.56;77.16;97029.50;4860593;29;20520;-66
2022/01/05 16:50:02;;;;;;;17.02;9.50;;;;;;;-4.53;77.07;97029.34;4861832;29;20051;-65
2022/01/05 16:52:27;;;;;;;17.17;9.68;;;;;;;-4.46;76.86;97043.69;4844971;29;20037;-65
2022/01/05 16:55:00;;;;;;;16.80;10.70;;;;;;;-4.41;76.55;97039.09;4860167;29;20051;-65
2022/01/05 17:02:35;;;;;;;17.35;9.43;;;;;;;-4.40;77.02;97022.53;4861254;29;20055;-64
2022/01/05 17:04:59;;;;;;;15.50;8.80;;;;;;;-4.34;76.58;97027.41;4860011;29;20048;-65
2022/01/05 17:07:24;;;;;;;17.98;10.10;;;;;;;-4.31;77.12;97016.84;4860103;29;20048;-65
2022/01/05 17:09:49;;;;;;;17.48;9.55;;;;;;;-4.27;76.50;97027.91;4861418;29;20048;-63
2022/01/05 17:12:16;;;;;;;17.60;10.30;;;;;;;-4.22;76.50;97039.75;4860554;29;20044;-63
2022/01/05 17:14:40;;;;;;;19.85;9.68;;;;;;;-4.18;76.05;97046.50;4862793;29;20045;-64
2022/01/05 17:17:08;;;;;;;20.45;11.60;;;;;;;-4.11;75.81;97068.63;4873970;29;20112;-63
2022/01/05 17:19:34;;;;;;;18.35;10.43;;;;;;;-4.12;75.40;97074.75;4879984;29;20439;-67
2022/01/05 17:22:00;;;;;;;17.55;10.40;;;;;;;-4.08;75.73;97086.69;4862874;29;20099;-66
2022/01/05 17:24:25;;;;;;;15.43;8.50;;;;;;;-3.98;76.05;97078.38;4880482;29;20139;-66
2022/01/05 17:26:51;;;;;;;25.80;11.05;;;;;;;-4.04;76.11;97075.19;4862790;29;20099;-63
2022/01/05 17:29:18;;;;;;;16.17;8.27;;;;;;;-4.02;75.59;97070.72;4880108;29;20044;-63
2022/01/05 17:31:44;;;;;;;17.95;11.10;;;;;;;-4.13;76.34;97078.28;4879933;29;20048;-63
2022/01/05 17:34:08;;;;;;;19.23;10.90;;;;;;;-4.24;76.24;97070.22;4879893;29;20055;-63
2022/01/05 17:36:33;;;;;;;20.08;10.32;;;;;;;-4.11;76.42;97066.03;4880018;29;20519;-61
2022/01/05 17:38:58;;;;;;;22.20;11.88;;;;;;;-4.14;76.42;97066.19;4880372;29;20048;-62
2022/01/05 17:41:24;;;;;;;16.02;8.30;;;;;;;-4.09;76.57;97059.00;4862742;29;20048;-61
2022/01/05 17:43:50;;;;;;;23.27;11.63;;;;;;;-4.00;76.75;97077.63;4880028;29;20059;-61
2022/01/05 17:46:16;;;;;;;24.45;10.27;;;;;;;-4.09;76.42;97078.97;4879628;29;20044;-61
2022/01/05 17:48:42;;;;;;;27.02;13.63;;;;;;;-4.26;76.28;97086.81;4879636;29;20184;-60
2022/01/05 17:51:07;;;;;;;20.67;12.15;;;;;;;-4.22;76.35;97089.19;4879978;29;20566;-61
2022/01/05 17:53:32;;;;;;;18.45;10.32;;;;;;;-4.10;76.23;97093.75;4880839;29;20534;-60
2022/01/05 17:55:57;;;;;;;18.15;10.68;;;;;;;-4.09;76.05;97084.16;4880014;29;20050;-61
2022/01/05 17:58:25;;;;;;;18.27;10.80;;;;;;;-4.06;75.37;97074.41;4847347;29;20055;-61
2022/01/05 18:00:50;;;;;;;22.00;11.63;;;;;;;-4.07;76.33;97062.34;4880128;29;20828;-61
2022/01/05 18:03:15;;;;;;;21.52;10.88;;;;;;;-4.02;76.49;97065.53;4862898;29;20131;-61
2022/01/05 18:05:40;;;;;;;21.90;10.25;;;;;;;-3.99;76.49;97068.91;4862816;29;20427;-60
2022/01/05 18:08:07;;;;;;;20.48;10.27;;;;;;;-3.94;76.72;97067.69;4879622;29;20414;-60
2022/01/05 18:10:32;;;;;;;17.45;9.85;;;;;;;-3.90;76.36;97057.97;4880240;29;20499;-60
2022/01/05 18:12:57;;;;;;;24.13;9.85;;;;;;;-3.81;76.60;97068.72;4881136;29;20492;-61